Time;durP1;ratioP1;P1;durP2;ratioP2;P2;SDS_P1;SDS_P2;PMS_P1;PMS_P2;Temp;Humidity;BMP_temperature;BMP_pressure;BME280_temperature;BME280_humidity;BME280_pressure;Samples;Min_cycle;Max_cycle;Signal;HPM_P1;HPM_P2
2022/01/04 00:01:57;;;;;;;;;;;;;;;10.59;65.93;99513.66;4418357;32;32998;-79
2022/01/04 00:04:25;;;;;;;;;;;;;;;10.95;64.92;99502.03;4401970;32;34322;-80
2022/01/04 00:06:55;;;;;;;;;;;;;;;11.08;64.55;99505.09;4434320;32;36071;-78
2022/01/04 00:09:22;;;;;;;;;;;;;;;11.24;64.04;99502.56;4431572;32;34423;-80
2022/01/04 00:14:17;;;;;;;;;;;;;;;11.31;63.30;99498.31;4414403;32;33682;-80
2022/01/04 00:16:44;;;;;;;;;;;;;;;10.99;63.83;99492.72;4415609;32;36122;-79
2022/01/04 00:19:13;;;;;;;;;;;;;;;10.94;64.01;99487.03;4429272;32;34522;-80
2022/01/04 00:21:42;;;;;;;;;;;;;;;11.13;63.27;99498.31;4431795;32;33362;-80
2022/01/04 00:24:09;;;;;;;;;;;;;;;11.16;63.06;99491.88;4431636;32;34766;-80
2022/01/04 00:26:37;;;;;;;;;;;;;;;11.24;62.57;99495.41;4419959;32;35329;-80
2022/01/04 00:29:04;;;;;;;;;;;;;;;11.24;62.07;99494.59;4413455;32;34493;-79
2022/01/04 00:31:32;;;;;;;;;;;;;;;11.20;61.67;99496.72;4419408;32;31650;-79
2022/01/04 00:33:59;;;;;;;;;;;;;;;11.29;61.06;99487.81;4413891;32;35139;-80
2022/01/04 00:36:27;;;;;;;;;;;;;;;11.26;60.88;99482.78;4413066;32;35224;-81
2022/01/04 00:38:54;;;;;;;;;;;;;;;11.17;61.08;99499.72;4401897;32;33659;-79
2022/01/04 00:41:22;;;;;;;;;;;;;;;11.15;61.52;99490.19;4431296;32;32974;-81
2022/01/04 00:43:49;;;;;;;;;;;;;;;10.93;62.46;99485.38;4415150;32;34718;-80
2022/01/04 00:46:17;;;;;;;;;;;;;;;11.02;62.01;99487.12;4414909;32;35329;-80
2022/01/04 00:51:32;;;;;;;;;;;;;;;11.26;61.36;99482.78;4415451;32;34163;-79
2022/01/04 00:54:00;;;;;;;;;;;;;;;11.36;61.03;99481.69;4414796;32;34331;-80
2022/01/04 00:56:27;;;;;;;;;;;;;;;11.24;61.16;99475.94;4414360;32;35171;-79
2022/01/04 00:58:55;;;;;;;;;;;;;;;11.30;61.00;99464.69;4411088;32;34644;-79
2022/01/04 01:01:22;;;;;;;;;;;;;;;10.75;62.80;99479.22;4431240;32;34567;-80
2022/01/04 01:03:50;;;;;;;;;;;;;;;10.91;61.73;99472.22;4453343;26;34692;-81
2022/01/04 01:06:18;;;;;;;;;;;;;;;10.67;62.75;99473.84;4408962;32;35214;-82
2022/01/04 01:08:47;;;;;;;;;;;;;;;10.50;63.70;99472.84;4408818;32;35190;-84
2022/01/04 01:11:15;;;;;;;;;;;;;;;10.77;62.68;99470.06;4392677;32;31684;-84
2022/01/04 01:13:43;;;;;;;;;;;;;;;10.58;63.42;99466.75;4394888;32;33009;-84
2022/01/04 01:16:13;;;;;;;;;;;;;;;10.44;63.96;99464.62;4412654;32;35322;-83
2022/01/04 01:18:42;;;;;;;;;;;;;;;10.18;64.68;99475.16;4409634;32;33963;-83
2022/01/04 01:21:12;;;;;;;;;;;;;;;10.23;64.70;99474.72;4416868;32;32866;-82
2022/01/04 01:23:40;;;;;;;;;;;;;;;10.03;65.32;99455.38;4399615;32;33557;-81
2022/01/04 01:26:08;;;;;;;;;;;;;;;9.45;67.77;99467.22;4375521;32;36299;-82
2022/01/04 01:28:37;;;;;;;;;;;;;;;9.30;68.46;99466.03;4391096;32;33669;-82
2022/01/04 01:31:07;;;;;;;;;;;;;;;9.83;66.35;99452.97;4366439;32;32089;-82
2022/01/04 01:33:37;;;;;;;;;;;;;;;9.45;67.28;99466.41;4381297;32;34339;-82
2022/01/04 01:36:05;;;;;;;;;;;;;;;8.83;69.38;99459.00;4394161;32;35334;-82
2022/01/04 01:38:33;;;;;;;;;;;;;;;9.36;67.54;99446.84;4395488;32;33678;-81
2022/01/04 01:41:02;;;;;;;;;;;;;;;9.61;66.58;99458.63;4403577;32;33053;-82
2022/01/04 01:43:29;;;;;;;;;;;;;;;9.45;66.95;99469.88;4406953;32;34333;-82
2022/01/04 01:45:57;;;;;;;;;;;;;;;9.74;66.20;99449.34;4400459;32;35441;-83
2022/01/04 01:48:29;;;;;;;;;;;;;;;9.49;66.54;99442.06;4401364;32;33923;-84
2022/01/04 01:50:57;;;;;;;;;;;;;;;9.73;65.87;99423.78;4404629;32;32839;-84
2022/01/04 01:53:25;;;;;;;;;;;;;;;9.75;65.62;99421.78;4387682;32;33325;-86
2022/01/04 01:55:53;;;;;;;;;;;;;;;9.35;66.98;99421.28;4402482;32;34134;-85
2022/01/04 01:58:21;;;;;;;;;;;;;;;10.23;63.97;99408.25;4405337;32;35206;-84
2022/01/04 02:00:49;;;;;;;;;;;;;;;9.98;64.75;99406.28;4418245;32;32467;-84
2022/01/04 02:03:17;;;;;;;;;;;;;;;9.90;65.23;99377.00;4381971;32;32922;-84
2022/01/04 02:05:46;;;;;;;;;;;;;;;9.86;65.20;99367.63;4417549;32;35583;-84
2022/01/04 02:08:14;;;;;;;;;;;;;;;9.56;66.45;99349.38;4393160;32;34160;-85
2022/01/04 02:10:41;;;;;;;;;;;;;;;9.66;66.08;99336.88;4388861;32;32178;-84
2022/01/04 02:13:12;;;;;;;;;;;;;;;9.53;66.43;99339.06;4406241;32;33499;-84
2022/01/04 02:15:41;;;;;;;;;;;;;;;9.47;66.79;99344.97;4408514;32;35378;-84
2022/01/04 02:18:09;;;;;;;;;;;;;;;9.82;65.72;99337.87;4404430;32;34890;-85
2022/01/04 02:20:38;;;;;;;;;;;;;;;10.00;64.92;99335.25;4400684;32;31964;-85
2022/01/04 02:23:06;;;;;;;;;;;;;;;9.66;66.02;99320.94;4418871;32;34284;-84
2022/01/04 02:25:36;;;;;;;;;;;;;;;9.15;68.07;99318.84;4391688;32;34866;-84
2022/01/04 02:28:04;;;;;;;;;;;;;;;9.30;67.74;99325.34;4402641;32;33462;-85
2022/01/04 02:30:32;;;;;;;;;;;;;;;9.23;68.12;99318.09;4418865;32;32711;-85
2022/01/04 02:32:59;;;;;;;;;;;;;;;9.63;66.71;99327.38;4406113;32;34690;-84
2022/01/04 02:35:30;;;;;;;;;;;;;;;9.57;66.68;99335.97;4393639;32;34155;-85
2022/01/04 02:38:01;;;;;;;;;;;;;;;9.54;66.72;99335.41;4405601;32;33562;-85
2022/01/04 02:40:31;;;;;;;;;;;;;;;9.90;65.55;99329.16;4404368;32;33483;-85
2022/01/04 02:43:01;;;;;;;;;;;;;;;9.53;66.65;99334.56;4392438;32;32973;-84
2022/01/04 02:45:29;;;;;;;;;;;;;;;9.82;65.84;99343.19;4408719;32;35983;-85
2022/01/04 02:47:57;;;;;;;;;;;;;;;9.77;65.89;99350.78;4382599;32;35632;-85
2022/01/04 02:50:26;;;;;;;;;;;;;;;9.57;66.85;99351.91;4404123;32;32755;-85
2022/01/04 02:52:54;;;;;;;;;;;;;;;10.14;64.94;99335.56;4387467;32;34034;-85
2022/01/04 02:55:21;;;;;;;;;;;;;;;10.23;64.08;99337.31;4405272;32;34846;-85
2022/01/04 02:57:50;;;;;;;;;;;;;;;10.21;64.30;99333.97;4389995;32;34113;-85
2022/01/04 03:00:18;;;;;;;;;;;;;;;10.25;64.14;99338.00;4419947;32;33189;-85
2022/01/04 03:02:45;;;;;;;;;;;;;;;10.42;63.77;99330.97;4390994;32;33386;-85
2022/01/04 03:05:13;;;;;;;;;;;;;;;10.75;62.23;99331.06;4400637;32;35320;-81
2022/01/04 03:07:42;;;;;;;;;;;;;;;10.46;63.13;99327.84;4398721;32;35445;-82
2022/01/04 03:10:09;;;;;;;;;;;;;;;10.64;62.52;99318.00;4389495;32;33029;-83
2022/01/04 03:12:44;;;;;;;;;;;;;;;9.91;65.44;99320.22;4405931;32;33510;-83
2022/01/04 03:15:12;;;;;;;;;;;;;;;9.84;65.79;99308.50;4404757;32;35251;-82
2022/01/04 03:17:41;;;;;;;;;;;;;;;10.19;64.28;99300.56;4390070;32;34649;-81
2022/01/04 03:20:09;;;;;;;;;;;;;;;10.29;63.92;99296.00;4408668;32;33175;-82
2022/01/04 03:22:37;;;;;;;;;;;;;;;10.02;64.74;99304.03;4374518;32;33429;-82
2022/01/04 03:25:05;;;;;;;;;;;;;;;10.36;63.57;99300.53;4374321;32;33782;-83
2022/01/04 03:27:33;;;;;;;;;;;;;;;10.48;62.82;99291.31;4387755;32;33399;-83
2022/01/04 03:30:00;;;;;;;;;;;;;;;10.35;63.18;99290.88;4390778;32;33098;-83
2022/01/04 03:32:28;;;;;;;;;;;;;;;10.23;63.43;99283.31;4389109;32;33861;-83
2022/01/04 03:34:56;;;;;;;;;;;;;;;9.98;64.52;99292.03;4385949;32;35849;-83
2022/01/04 03:37:25;;;;;;;;;;;;;;;9.98;64.40;99273.41;4400701;32;33992;-82
2022/01/04 03:39:54;;;;;;;;;;;;;;;9.85;64.92;99270.31;4404670;32;33081;-83
2022/01/04 03:42:21;;;;;;;;;;;;;;;9.51;65.72;99259.53;4400449;32;34505;-82
2022/01/04 03:44:49;;;;;;;;;;;;;;;10.01;64.09;99267.81;4390174;32;35971;-83
2022/01/04 03:47:17;;;;;;;;;;;;;;;9.84;64.54;99266.81;4379744;32;33404;-82
2022/01/04 03:49:56;;;;;;;;;;;;;;;9.61;65.13;99262.97;4397049;32;33266;-82
2022/01/04 03:52:24;;;;;;;;;;;;;;;9.70;64.71;99264.72;4379909;32;34367;-83
2022/01/04 03:54:52;;;;;;;;;;;;;;;9.64;64.68;99267.16;4392797;32;33688;-83
2022/01/04 03:57:20;;;;;;;;;;;;;;;9.66;64.43;99267.81;4403375;32;35330;-83
2022/01/04 03:59:48;;;;;;;;;;;;;;;9.71;64.01;99263.72;4398719;32;33157;-83
2022/01/04 04:02:16;;;;;;;;;;;;;;;9.80;63.79;99246.87;4403163;32;33611;-84
2022/01/04 04:04:44;;;;;;;;;;;;;;;9.59;63.77;99241.03;4395829;32;34688;-82
2022/01/04 04:07:11;;;;;;;;;;;;;;;9.67;63.49;99243.78;4417761;32;34467;-82
2022/01/04 04:09:40;;;;;;;;;;;;;;;9.51;64.02;99238.31;4420509;32;33327;-82
2022/01/04 04:12:10;;;;;;;;;;;;;;;9.44;64.40;99239.06;4416262;32;33919;-83
2022/01/04 04:14:39;;;;;;;;;;;;;;;9.27;65.99;99237.22;4401416;32;35664;-82
2022/01/04 04:17:14;;;;;;;;;;;;;;;9.29;65.86;99245.87;4379448;32;32101;-83
2022/01/04 04:19:42;;;;;;;;;;;;;;;9.07;66.84;99238.31;4402985;32;31856;-83
2022/01/04 04:22:12;;;;;;;;;;;;;;;8.61;69.05;99249.81;4395390;32;33680;-83
2022/01/04 04:24:41;;;;;;;;;;;;;;;9.01;67.99;99242.41;4401405;32;35773;-81
2022/01/04 04:27:09;;;;;;;;;;;;;;;9.02;67.48;99233.47;4380308;32;34247;-82
2022/01/04 04:29:36;;;;;;;;;;;;;;;9.07;67.46;99228.53;4404396;32;34056;-82
2022/01/04 04:32:04;;;;;;;;;;;;;;;8.69;68.63;99235.88;4380096;32;33277;-84
2022/01/04 04:34:32;;;;;;;;;;;;;;;9.02;67.72;99222.84;4402202;32;35318;-84
2022/01/04 04:37:00;;;;;;;;;;;;;;;8.95;67.74;99221.75;4394523;32;34344;-84
2022/01/04 04:39:28;;;;;;;;;;;;;;;8.91;68.20;99228.31;4391218;32;33269;-84
2022/01/04 04:41:56;;;;;;;;;;;;;;;9.19;67.27;99215.91;4401589;32;32892;-84
2022/01/04 04:44:33;;;;;;;;;;;;;;;9.15;67.23;99210.06;4376640;32;34155;-84
2022/01/04 04:47:02;;;;;;;;;;;;;;;9.17;67.21;99218.69;4392730;32;34734;-84
2022/01/04 04:49:29;;;;;;;;;;;;;;;9.30;66.52;99223.63;4399436;32;34024;-85
2022/01/04 04:51:59;;;;;;;;;;;;;;;9.40;65.92;99219.94;4378744;32;33778;-85
2022/01/04 04:54:29;;;;;;;;;;;;;;;9.63;65.04;99207.06;4405177;32;35462;-84
2022/01/04 04:56:56;;;;;;;;;;;;;;;9.72;64.58;99206.13;4407806;32;35146;-84
2022/01/04 04:59:26;;;;;;;;;;;;;;;10.01;63.14;99196.88;4397671;32;32338;-84
2022/01/04 05:01:55;;;;;;;;;;;;;;;9.90;63.24;99201.63;4406889;32;34036;-85
2022/01/04 05:04:23;;;;;;;;;;;;;;;9.61;64.02;99198.38;4406757;32;34211;-84
2022/01/04 05:06:53;;;;;;;;;;;;;;;9.92;62.47;99197.00;4387713;32;34705;-85
2022/01/04 05:09:24;;;;;;;;;;;;;;;9.74;63.00;99193.53;4406415;32;32314;-85
2022/01/04 05:11:52;;;;;;;;;;;;;;;9.70;63.11;99192.16;4402484;32;33959;-84
2022/01/04 05:14:19;;;;;;;;;;;;;;;9.35;64.03;99200.97;4402725;32;35217;-84
2022/01/04 05:16:47;;;;;;;;;;;;;;;9.51;63.49;99197.62;4392269;32;33489;-85
2022/01/04 05:19:16;;;;;;;;;;;;;;;9.69;62.38;99204.62;4422022;32;33353;-85
2022/01/04 05:21:48;;;;;;;;;;;;;;;9.77;62.14;99198.53;4405969;32;32780;-84
2022/01/04 05:24:16;;;;;;;;;;;;;;;9.67;62.50;99190.66;4391909;32;35287;-84
2022/01/04 05:26:44;;;;;;;;;;;;;;;9.31;63.68;99201.41;4391180;32;33411;-86
2022/01/04 05:29:13;;;;;;;;;;;;;;;9.18;63.70;99201.78;4390827;32;33932;-84
2022/01/04 05:31:42;;;;;;;;;;;;;;;9.35;62.59;99194.84;4404235;32;32677;-83
2022/01/04 05:34:10;;;;;;;;;;;;;;;9.44;62.95;99178.81;4406963;32;34184;-84
2022/01/04 05:36:37;;;;;;;;;;;;;;;9.32;63.08;99174.72;4402208;32;35360;-83
2022/01/04 05:39:08;;;;;;;;;;;;;;;8.99;64.12;99177.22;4397081;32;32827;-84
2022/01/04 05:41:36;;;;;;;;;;;;;;;9.01;63.46;99165.47;4401536;32;33408;-83
2022/01/04 05:44:04;;;;;;;;;;;;;;;9.08;63.50;99157.75;4404741;32;34288;-83
2022/01/04 05:46:32;;;;;;;;;;;;;;;8.97;65.03;99150.81;4423519;32;34114;-84
2022/01/04 05:49:02;;;;;;;;;;;;;;;8.69;66.17;99143.88;4409045;32;33532;-85
2022/01/04 05:51:30;;;;;;;;;;;;;;;8.80;65.17;99141.00;4382974;32;35212;-85
2022/01/04 05:53:59;;;;;;;;;;;;;;;8.56;66.31;99145.19;4408187;32;35006;-86
2022/01/04 05:56:27;;;;;;;;;;;;;;;8.33;67.35;99148.37;4414290;32;34653;-85
2022/01/04 05:59:02;;;;;;;;;;;;;;;8.49;66.25;99139.66;4401375;32;33623;-85
2022/01/04 06:01:30;;;;;;;;;;;;;;;7.93;67.87;99138.00;4378533;32;34843;-85
2022/01/04 06:03:58;;;;;;;;;;;;;;;8.68;65.36;99136.06;4379113;32;35193;-83
2022/01/04 06:06:26;;;;;;;;;;;;;;;8.52;66.20;99138.53;4405529;32;34046;-83
2022/01/04 06:08:55;;;;;;;;;;;;;;;8.66;65.87;99130.91;4402457;32;33554;-84
2022/01/04 06:11:55;;;;;;;;;;;;;;;8.31;67.33;99137.09;4417156;32;33560;-84
2022/01/04 06:17:08;;;;;;;;;;;;;;;8.36;67.36;99132.19;4410447;32;34289;-84
2022/01/04 06:19:44;;;;;;;;;;;;;;;7.88;69.01;99132.34;4379891;32;31957;-84
2022/01/04 06:22:14;;;;;;;;;;;;;;;8.12;68.54;99124.72;4416612;32;33401;-85
2022/01/04 06:24:42;;;;;;;;;;;;;;;8.36;67.57;99124.22;4376316;32;1085939;-83
2022/01/04 06:27:10;;;;;;;;;;;;;;;8.08;68.38;99127.78;4395339;32;34559;-83
2022/01/04 06:30:00;;;;;;;;;;;;;;;8.29;67.62;99128.47;4380290;32;32640;-84
2022/01/04 06:32:32;;;;;;;;;;;;;;;7.96;69.21;99126.31;4382963;32;33346;-83
2022/01/04 06:35:01;;;;;;;;;;;;;;;8.32;68.22;99122.88;4405922;32;36020;-85
2022/01/04 06:37:32;;;;;;;;;;;;;;;8.57;66.97;99115.91;4390207;32;34392;-83
2022/01/04 06:40:00;;;;;;;;;;;;;;;8.42;66.72;99116.53;4407686;32;32297;-84
2022/01/04 06:42:28;;;;;;;;;;;;;;;8.53;66.10;99103.09;4392536;32;34194;-84
2022/01/04 06:44:57;;;;;;;;;;;;;;;8.72;65.18;99098.47;4421046;32;35517;-84
2022/01/04 06:47:36;;;;;;;;;;;;;;;8.49;65.93;99107.00;4414335;32;33771;-84
2022/01/04 13:32:49;;;;;;;;;;;;;;;12.20;63.21;98600.81;4427495;26;35547;-86
2022/01/04 13:35:30;;;;;;;;;;;;;;;12.40;63.16;98591.25;4428794;32;33613;-85
2022/01/04 13:38:05;;;;;;;;;;;;;;;12.26;62.99;98596.56;4404408;32;33925;-87
2022/01/04 13:40:43;;;;;;;;;;;;;;;12.86;61.49;98597.19;4429727;32;31878;-85
2022/01/04 13:43:12;;;;;;;;;;;;;;;12.50;62.55;98593.66;4411218;32;34434;-85
2022/01/04 13:48:51;;;;;;;;;;;;;;;12.54;62.59;98603.75;4440135;32;35432;-89
2022/01/04 13:51:24;;;;;;;;;;;;;;;12.74;61.72;98602.16;4423364;32;34103;-88
2022/01/04 13:53:53;;;;;;;;;;;;;;;13.06;60.41;98592.94;4433462;32;32550;-89
2022/01/04 13:56:24;;;;;;;;;;;;;;;12.75;61.50;98589.66;4429214;32;34507;-89
2022/01/04 13:58:54;;;;;;;;;;;;;;;12.87;61.08;98586.34;4450404;32;34267;-87
2022/01/04 14:01:30;;;;;;;;;;;;;;;12.87;61.07;98581.00;4434511;32;31970;-88
2022/01/04 14:04:22;;;;;;;;;;;;;;;12.48;62.24;98593.81;4424305;32;32659;-81
2022/01/04 14:07:13;;;;;;;;;;;;;;;12.93;61.12;98582.09;4419005;32;33707;-83
2022/01/04 14:09:43;;;;;;;;;;;;;;;12.79;61.55;98572.25;4414657;32;34356;-85
2022/01/04 14:12:12;;;;;;;;;;;;;;;12.79;61.72;98577.59;4443652;32;33553;-85
2022/01/04 14:14:46;;;;;;;;;;;;;;;12.96;60.97;98569.19;4431225;32;34398;-88
2022/01/04 14:17:19;;;;;;;;;;;;;;;13.12;60.41;98579.62;4416338;32;33914;-86
2022/01/04 14:20:06;;;;;;;;;;;;;;;12.90;61.17;98563.75;4410560;32;34242;-85
2022/01/04 14:22:38;;;;;;;;;;;;;;;12.89;61.50;98575.44;4424259;32;32595;-84
2022/01/04 14:27:54;;;;;;;;;;;;;;;12.79;61.33;98566.91;4451427;32;35124;-86
2022/01/04 14:33:28;;;;;;;;;;;;;;;13.45;59.43;98554.09;4381682;32;32277;-87
2022/01/04 14:36:04;;;;;;;;;;;;;;;13.11;60.02;98550.47;4357621;32;33564;-85
2022/01/04 14:38:46;;;;;;;;;;;;;;;;;;;;;
2022/01/04 14:41:28;;;;;;;;;;;;;;;13.56;58.96;98542.03;4352284;32;33487;-85
2022/01/04 14:44:07;;;;;;;;;;;;;;;13.46;58.90;98529.03;4371271;32;33295;-86
2022/01/04 14:49:22;;;;;;;;;;;;;;;13.37;59.10;98532.00;4376313;32;34725;-89
2022/01/04 14:51:50;;;;;;;;;;;;;;;13.60;58.73;98538.78;4364611;32;34650;-87
2022/01/04 14:57:37;;;;;;;;;;;;;;;13.19;59.87;98539.66;4378917;32;33760;-87
2022/01/04 15:03:41;;;;;;;;;;;;;;;12.92;60.82;98541.19;4377602;32;35457;-88
2022/01/04 15:06:13;;;;;;;;;;;;;;;12.88;60.96;98531.94;4376484;32;33271;-87
2022/01/04 15:08:41;;;;;;;;;;;;;;;12.87;61.11;98535.63;4364346;32;34283;-87
2022/01/04 15:14:37;;;;;;;;;;;;;;;12.76;61.45;98540.63;4406005;32;36263;-87
2022/01/04 15:23:41;;;;;;;;;;;;;;;12.63;61.92;98564.44;4454860;32;36863;-88
2022/01/04 15:39:00;;;;;;;;;;;;;;;12.38;62.50;98512.44;4408026;32;35435;-88
2022/01/04 15:41:28;;;;;;;;;;;;;;;12.30;62.86;98512.56;4401358;32;33673;-88
2022/01/04 15:46:45;;;;;;;;;;;;;;;12.43;62.21;98492.22;4395329;32;35126;-88
2022/01/04 15:49:13;;;;;;;;;;;;;;;12.34;62.64;98473.81;4395444;32;34984;-88
2022/01/04 15:55:00;;;;;;;;;;;;;;;12.19;63.03;98481.03;4440858;32;34992;-88
2022/01/04 16:00:52;;;;;;;;;;;;;;;12.09;64.01;98502.62;4442262;32;35427;-86
2022/01/04 16:13:00;;;;;;;;;;;;;;;12.17;63.34;98489.22;4452815;32;34785;-86
2022/01/04 16:25:35;;;;;;;;;;;;;;;12.56;62.11;98484.34;4456071;32;35649;-86
2022/01/04 16:28:04;;;;;;;;;;;;;;;12.32;63.32;98498.03;4427942;32;33159;-86
2022/01/04 16:31:08;;;;;;;;;;;;;;;13.10;60.74;98496.25;4420008;32;35726;-87
2022/01/04 16:33:39;;;;;;;;;;;;;;;13.00;60.79;98487.72;4374373;32;34480;-88
2022/01/04 16:39:39;;;;;;;;;;;;;;;13.47;59.25;98481.75;4416868;32;34083;-87
2022/01/04 16:45:35;;;;;;;;;;;;;;;12.27;63.07;98480.94;4421859;32;36855;-87
2022/01/04 16:48:05;;;;;;;;;;;;;;;12.52;62.97;98488.41;4412434;32;35201;-88
2022/01/04 17:00:44;;;;;;;;;;;;;;;12.48;62.77;98488.97;4430290;32;36338;-87
2022/01/04 17:09:53;;;;;;;;;;;;;;;12.64;62.30;98502.06;4374245;32;35291;-87
2022/01/04 17:12:38;;;;;;;;;;;;;;;12.76;61.94;98492.56;4380819;32;35351;-88
2022/01/04 17:15:33;;;;;;;;;;;;;;;12.82;61.79;98502.47;4371711;32;33768;-88
2022/01/04 17:18:17;;;;;;;;;;;;;;;12.96;61.22;98512.31;4366565;32;34859;-87
2022/01/04 17:23:35;;;;;;;;;;;;;;;13.08;60.63;98519.62;4363926;32;35066;-87
2022/01/04 17:26:03;;;;;;;;;;;;;;;13.03;60.69;98515.88;4352653;32;32851;-87
2022/01/04 17:31:58;;;;;;;;;;;;;;;12.76;61.40;98521.94;4377258;32;36956;-87
2022/01/04 17:37:26;;;;;;;;;;;;;;;12.85;61.35;98502.13;4374704;32;34931;-88
2022/01/04 17:47:06;;;;;;;;;;;;;;;12.44;62.75;98482.34;4411173;32;36363;-87
2022/01/04 17:53:00;;;;;;;;;;;;;;;12.27;63.17;98473.75;4422547;32;34810;-88
2022/01/04 18:08:17;;;;;;;;;;;;;;;12.78;60.80;98464.69;4455490;32;36933;-87
2022/01/04 18:10:50;;;;;;;;;;;;;;;12.53;62.06;98459.88;4413152;32;34498;-87
2022/01/04 18:16:45;;;;;;;;;;;;;;;12.18;63.33;98464.19;4439847;32;35852;-88
2022/01/04 18:22:39;;;;;;;;;;;;;;;12.38;62.84;98454.59;4439908;32;35435;-87
2022/01/04 18:29:03;;;;;;;;;;;;;;;11.99;63.72;98442.62;4396608;32;35773;-85
2022/01/04 18:34:39;;;;;;;;;;;;;;;12.50;62.50;98461.09;4392582;32;33503;-87
2022/01/04 18:40:11;;;;;;;;;;;;;;;12.94;60.55;98463.63;4386692;32;34901;-88
2022/01/04 18:45:41;;;;;;;;;;;;;;;12.92;60.23;98469.13;4443901;32;35485;-90
2022/01/04 18:48:11;;;;;;;;;;;;;;;12.88;60.09;98478.53;4447490;32;33094;-88
2022/01/04 18:54:06;;;;;;;;;;;;;;;12.80;60.36;98476.00;4455116;32;36049;-87
2022/01/04 18:59:43;;;;;;;;;;;;;;;12.96;60.20;98450.91;4449559;32;32837;-87
2022/01/04 19:05:37;;;;;;;;;;;;;;;12.47;61.88;98464.13;4439400;32;36130;-87
2022/01/04 19:21:32;;;;;;;;;;;;;;;12.07;62.92;98464.69;4454720;32;35521;-87
2022/01/04 19:26:55;;;;;;;;;;;;;;;11.39;65.15;98476.56;4440211;32;32751;-87
2022/01/04 19:36:14;;;;;;;;;;;;;;;11.80;64.27;98470.66;4450049;32;35050;-84
2022/01/04 19:38:48;;;;;;;;;;;;;;;11.75;64.58;98458.91;4406340;32;33512;-88
2022/01/04 19:41:17;;;;;;;;;;;;;;;12.01;63.65;98452.06;4422472;32;35896;-87
2022/01/04 19:50:10;;;;;;;;;;;;;;;11.74;64.32;98455.41;4437676;32;34949;-89
2022/01/04 19:52:40;;;;;;;;;;;;;;;11.89;63.75;98448.25;4403066;32;33721;-88
2022/01/04 19:58:32;;;;;;;;;;;;;;;12.17;63.28;98459.03;4438728;32;35001;-88
2022/01/04 20:04:08;;;;;;;;;;;;;;;12.30;62.62;98461.87;4438522;32;35396;-89
2022/01/04 20:06:37;;;;;;;;;;;;;;;12.46;61.81;98459.00;4438558;32;35029;-88
2022/01/04 20:09:07;;;;;;;;;;;;;;;12.44;62.14;98453.84;4412680;32;31654;-88
2022/01/04 20:11:35;;;;;;;;;;;;;;;12.41;62.27;98451.56;4414739;32;33811;-88
2022/01/04 20:17:15;;;;;;;;;;;;;;;12.91;60.18;98446.13;4454049;32;35550;-88
2022/01/04 20:19:44;;;;;;;;;;;;;;;12.61;60.37;98451.75;4426047;32;32107;-89
2022/01/04 20:29:07;;;;;;;;;;;;;;;11.57;63.69;98458.44;4455778;32;36140;-88
2022/01/04 20:31:36;;;;;;;;;;;;;;;11.35;64.47;98446.81;4440698;32;32939;-89
2022/01/04 20:34:04;;;;;;;;;;;;;;;10.95;66.28;98435.69;4414051;32;34078;-88
2022/01/04 20:39:43;;;;;;;;;;;;;;;10.95;65.90;98427.72;4440753;32;35571;-88
2022/01/04 20:45:36;;;;;;;;;;;;;;;11.35;64.76;98427.34;4455996;32;34970;-89
2022/01/04 21:00:29;;;;;;;;;;;;;;;11.82;61.95;98414.53;4455853;32;36930;-88
2022/01/04 21:03:00;;;;;;;;;;;;;;;11.71;62.29;98407.00;4453410;32;34850;-87
2022/01/04 21:11:25;;;;;;;;;;;;;;;11.30;63.41;98416.41;4455749;32;36909;-89
2022/01/04 21:17:17;;;;;;;;;;;;;;;11.10;65.43;98407.31;4455892;32;34139;-89
2022/01/04 21:23:29;;;;;;;;;;;;;;;10.51;67.37;98424.09;4406810;32;36013;-89
2022/01/04 21:32:33;;;;;;;;;;;;;;;10.29;68.12;98418.75;4407556;32;35780;-87
2022/01/04 21:38:25;;;;;;;;;;;;;;;10.50;68.60;98429.59;4431939;32;35417;-88
2022/01/04 21:44:05;;;;;;;;;;;;;;;10.99;65.98;98429.03;4448543;32;34912;-90
2022/01/04 21:46:37;;;;;;;;;;;;;;;11.18;64.80;98433.84;4414050;32;36644;-87
2022/01/04 22:01:26;;;;;;;;;;;;;;;11.41;62.68;98406.16;4450399;32;35538;-89
2022/01/04 22:23:02;;;;;;;;;;;;;;;10.32;69.90;98407.78;4454861;32;36951;-89
2022/01/04 22:38:33;;;;;;;;;;;;;;;11.42;64.40;98397.16;4419899;32;35405;-89
2022/01/04 22:44:28;;;;;;;;;;;;;;;11.31;64.39;98401.28;4434135;32;34850;-89
2022/01/04 22:53:44;;;;;;;;;;;;;;;11.13;65.55;98398.13;4439538;32;32428;-88
2022/01/04 22:56:12;;;;;;;;;;;;;;;10.62;67.00;98396.25;4436428;32;33059;-89
2022/01/04 23:05:26;;;;;;;;;;;;;;;11.22;64.23;98376.56;4454957;32;34111;-88
2022/01/04 23:11:18;;;;;;;;;;;;;;;11.07;64.34;98367.75;4454851;32;35972;-88
2022/01/04 23:23:22;;;;;;;;;;;;;;;11.10;63.92;98354.06;4454664;32;37074;-89
2022/01/04 23:29:13;;;;;;;;;;;;;;;10.91;63.62;98362.56;4454650;32;34933;-88
2022/01/04 23:35:06;;;;;;;;;;;;;;;10.93;63.67;98357.09;4454501;32;36065;-88
2022/01/04 23:40:59;;;;;;;;;;;;;;;10.70;65.11;98351.81;4454438;32;34800;-88
2022/01/04 23:46:52;;;;;;;;;;;;;;;10.72;65.44;98368.41;4456407;32;36110;-89
2022/01/04 23:52:45;;;;;;;;;;;;;;;10.66;65.49;98365.66;4456417;32;34932;-88
2022/01/04 23:58:40;;;;;;;;;;;;;;;10.66;66.31;98355.81;4456434;32;36891;-89
